createdAt,value
2023-02-17T00:01:15.031Z,44.30
2023-02-17T00:03:42.020Z,44.70
2023-02-17T00:06:11.400Z,44.57
2023-02-17T00:08:38.575Z,45.51
2023-02-17T00:11:05.961Z,44.36
2023-02-17T00:13:33.351Z,45.03
2023-02-17T00:16:00.497Z,44.97
2023-02-17T00:18:27.399Z,43.98
2023-02-17T00:20:54.131Z,43.74
2023-02-17T00:23:21.048Z,42.95
2023-02-17T00:25:47.860Z,43.91
2023-02-17T00:28:14.744Z,44.54
2023-02-17T00:30:41.459Z,44.22
2023-02-17T00:33:08.188Z,43.96
2023-02-17T00:35:39.944Z,43.78
2023-02-17T00:38:07.814Z,44.05
2023-02-17T00:40:34.606Z,44.56
2023-02-17T00:43:02.259Z,44.94
2023-02-17T00:45:28.966Z,44.24
2023-02-17T00:47:55.916Z,44.06
2023-02-17T00:50:22.605Z,43.15
2023-02-17T00:52:49.491Z,43.08
2023-02-17T00:55:16.229Z,43.37
2023-02-17T00:57:42.998Z,43.44
2023-02-17T01:00:10.366Z,43.52
2023-02-17T01:02:37.052Z,43.19
2023-02-17T01:05:04.163Z,43.29
2023-02-17T01:07:30.835Z,44.00
2023-02-17T01:09:57.696Z,43.64
2023-02-17T01:12:24.572Z,44.42
2023-02-17T01:14:51.755Z,44.14
2023-02-17T01:17:18.423Z,46.04
2023-02-17T01:19:45.254Z,46.06
2023-02-17T01:22:12.054Z,46.31
2023-02-17T01:24:40.282Z,46.60
2023-02-17T01:27:07.090Z,46.39
2023-02-17T01:29:33.943Z,46.78
2023-02-17T01:32:00.759Z,46.37
2023-02-17T01:34:28.263Z,45.45
2023-02-17T01:36:55.031Z,47.41
2023-02-17T01:39:21.896Z,45.97
2023-02-17T01:41:48.685Z,45.51
2023-02-17T01:44:24.924Z,44.96
2023-02-17T01:46:54.426Z,45.03
2023-02-17T01:49:30.463Z,45.05
2023-02-17T01:52:07.325Z,44.68
2023-02-17T01:54:47.948Z,44.57
2023-02-17T01:57:21.041Z,44.21
2023-02-17T01:59:48.703Z,43.98
2023-02-17T02:02:16.461Z,43.63
2023-02-17T02:04:46.846Z,44.13
2023-02-17T02:07:19.002Z,43.98
2023-02-17T02:09:54.235Z,44.04
2023-02-17T02:12:27.070Z,44.47
2023-02-17T02:14:57.382Z,44.80
2023-02-17T02:17:32.607Z,46.67
2023-02-17T02:20:19.695Z,46.34
2023-02-17T02:23:13.221Z,45.14
2023-02-17T02:25:40.027Z,45.38
2023-02-17T02:28:25.607Z,45.39
2023-02-17T02:31:03.846Z,45.70
2023-02-17T02:34:02.829Z,46.88
2023-02-17T02:36:33.324Z,47.17
2023-02-17T02:39:07.527Z,46.57
2023-02-17T02:41:39.958Z,47.59
2023-02-17T02:44:08.979Z,47.99
2023-02-17T02:46:36.111Z,46.86
2023-02-17T02:49:04.713Z,45.80
2023-02-17T02:52:00.164Z,45.25
2023-02-17T02:54:50.142Z,45.09
2023-02-17T02:57:52.807Z,46.35
2023-02-17T03:00:32.895Z,46.07
2023-02-17T03:03:21.989Z,46.72
2023-02-17T03:05:57.944Z,46.00
2023-02-17T03:08:36.437Z,45.68
2023-02-17T03:11:04.605Z,45.11
2023-02-17T03:13:39.533Z,45.32
2023-02-17T03:16:09.491Z,44.99
2023-02-17T03:18:36.496Z,44.45
2023-02-17T03:21:25.950Z,44.34
2023-02-17T03:23:52.848Z,45.06
2023-02-17T03:26:19.613Z,44.90
2023-02-17T03:28:46.912Z,44.78
2023-02-17T03:31:13.679Z,45.14
2023-02-17T03:33:40.791Z,45.38
2023-02-17T03:36:08.019Z,46.91
2023-02-17T03:38:34.836Z,46.29
2023-02-17T03:41:01.862Z,46.82
2023-02-17T03:43:28.592Z,46.45
2023-02-17T03:45:55.629Z,47.24
2023-02-17T03:48:22.497Z,46.94
2023-02-17T03:50:49.449Z,45.57
2023-02-17T03:53:16.342Z,45.92
2023-02-17T03:55:43.028Z,45.23
2023-02-17T03:58:10.069Z,45.00
2023-02-17T04:00:36.876Z,44.95
2023-02-17T04:03:03.644Z,45.37
2023-02-17T04:05:30.603Z,45.26
2023-02-17T04:07:57.240Z,45.23
2023-02-17T04:10:24.099Z,45.31
2023-02-17T04:12:50.869Z,45.26
2023-02-17T04:15:17.778Z,45.92
2023-02-17T04:17:44.368Z,46.36
2023-02-17T04:20:12.615Z,46.62
2023-02-17T04:22:39.405Z,46.37
2023-02-17T04:25:06.535Z,45.72
2023-02-17T04:27:33.285Z,45.85
2023-02-17T04:30:00.290Z,45.90
2023-02-17T04:32:27.046Z,46.83
2023-02-17T04:34:53.888Z,46.92
2023-02-17T04:37:20.852Z,46.76
2023-02-17T04:39:47.708Z,46.10
2023-02-17T04:42:14.512Z,46.57
2023-02-17T04:44:41.258Z,46.24
2023-02-17T04:47:07.960Z,45.27
2023-02-17T04:49:34.783Z,44.76
2023-02-17T04:52:01.567Z,46.54
2023-02-17T04:54:28.404Z,46.89
2023-02-17T04:56:55.152Z,46.14
2023-02-17T04:59:23.596Z,45.51
2023-02-17T05:01:51.366Z,44.74
2023-02-17T05:04:18.232Z,44.96
2023-02-17T05:06:44.979Z,44.97
2023-02-17T05:09:11.897Z,45.28
2023-02-17T05:11:38.683Z,44.51
2023-02-17T05:14:05.528Z,45.05
2023-02-17T05:16:32.187Z,44.69
2023-02-17T05:18:58.943Z,45.41
2023-02-17T05:21:25.846Z,44.82
2023-02-17T05:23:53.821Z,44.98
2023-02-17T05:26:20.777Z,44.36
2023-02-17T05:28:47.604Z,44.28
2023-02-17T05:31:14.533Z,44.86
2023-02-17T05:33:41.215Z,45.03
2023-02-17T05:36:10.630Z,44.65
2023-02-17T05:38:38.857Z,44.39
2023-02-17T05:41:06.010Z,46.18
2023-02-17T05:43:32.997Z,46.83
2023-02-17T05:46:04.411Z,45.34
2023-02-17T05:48:31.430Z,44.98
2023-02-17T05:50:58.265Z,45.05
2023-02-17T05:53:25.492Z,45.95
2023-02-17T05:55:52.473Z,46.56
2023-02-17T05:58:19.348Z,46.69
2023-02-17T06:00:47.133Z,45.60
2023-02-17T06:03:14.378Z,46.46
2023-02-17T06:05:41.334Z,45.43
2023-02-17T06:08:08.425Z,46.80
2023-02-17T06:10:35.185Z,45.23
2023-02-17T06:13:02.100Z,44.44
2023-02-17T06:15:30.481Z,44.12
2023-02-17T06:17:57.158Z,44.75
2023-02-17T06:20:23.986Z,44.63
2023-02-17T06:22:50.669Z,44.54
2023-02-17T06:25:17.544Z,44.32
2023-02-17T06:27:44.409Z,44.80
2023-02-17T06:30:12.048Z,44.49
2023-02-17T06:32:38.784Z,44.24
2023-02-17T06:35:05.946Z,43.85
2023-02-17T06:37:32.712Z,46.92
2023-02-17T06:39:59.450Z,44.67
2023-02-17T06:42:26.566Z,44.15
2023-02-17T06:44:53.367Z,43.83
2023-02-17T06:47:20.351Z,43.70
2023-02-17T06:49:47.350Z,43.25
2023-02-17T06:52:14.235Z,43.67
2023-02-17T06:54:40.976Z,42.85
2023-02-17T06:57:07.897Z,43.71
2023-02-17T06:59:34.659Z,43.13
2023-02-17T07:02:02.527Z,42.59
2023-02-17T07:04:29.875Z,43.13
2023-02-17T07:06:56.615Z,42.94
2023-02-17T07:09:23.457Z,42.70
2023-02-17T07:11:51.174Z,41.84
2023-02-17T07:14:18.041Z,42.38
2023-02-17T07:16:44.890Z,41.60
2023-02-17T07:19:11.767Z,41.88
2023-02-17T07:21:38.605Z,42.26
2023-02-17T07:24:05.784Z,42.18
2023-02-17T07:26:36.161Z,41.55
2023-02-17T07:29:04.038Z,41.14
2023-02-17T07:31:31.162Z,42.32
2023-02-17T07:33:58.157Z,42.29
2023-02-17T07:36:24.919Z,42.75
2023-02-17T07:38:51.653Z,43.67
2023-02-17T07:41:20.880Z,42.00
2023-02-17T07:43:48.789Z,43.27
2023-02-17T07:46:16.904Z,43.26
2023-02-17T07:48:43.733Z,41.99
2023-02-17T07:51:13.428Z,41.45
2023-02-17T07:53:40.207Z,40.77
2023-02-17T07:56:10.290Z,39.19
2023-02-17T07:58:39.766Z,39.10
2023-02-17T08:01:24.107Z,38.86
2023-02-17T08:03:51.451Z,38.94
2023-02-17T08:06:23.478Z,38.18
2023-02-17T08:09:10.465Z,38.02
2023-02-17T08:11:57.909Z,37.65
2023-02-17T08:14:27.016Z,38.36
2023-02-17T08:16:53.932Z,37.49
2023-02-17T08:19:21.527Z,37.20
2023-02-17T08:21:48.976Z,38.68
2023-02-17T08:24:22.017Z,38.19
2023-02-17T08:26:49.760Z,38.49
2023-02-17T08:29:17.309Z,37.46
2023-02-17T08:31:44.380Z,36.64
2023-02-17T08:34:13.516Z,36.56
2023-02-17T08:36:40.695Z,35.42
2023-02-17T08:39:12.104Z,35.08
2023-02-17T08:41:39.680Z,34.55
2023-02-17T08:44:18.797Z,34.93
2023-02-17T08:46:48.263Z,34.57
2023-02-17T08:49:17.054Z,33.93
2023-02-17T08:51:44.036Z,34.15
2023-02-17T08:54:12.350Z,33.41
2023-02-17T08:56:40.522Z,33.76
2023-02-17T08:59:08.943Z,33.75
2023-02-17T09:01:36.698Z,33.31
2023-02-17T09:04:05.189Z,33.11
2023-02-17T09:06:38.182Z,33.29
2023-02-17T09:09:06.879Z,32.33
2023-02-17T09:11:33.804Z,32.20
2023-02-17T09:14:00.834Z,31.83
2023-02-17T09:16:27.684Z,32.37
2023-02-17T09:18:55.159Z,31.72
2023-02-17T09:21:22.358Z,31.62
2023-02-17T09:23:50.259Z,30.88
2023-02-17T09:26:19.041Z,31.55
2023-02-17T09:28:46.552Z,30.48
2023-02-17T09:31:17.167Z,30.78
2023-02-17T09:33:44.623Z,30.32
2023-02-17T09:36:14.200Z,29.42
2023-02-17T09:38:42.057Z,29.34
2023-02-17T09:41:17.426Z,29.23
2023-02-17T09:43:45.208Z,28.81
2023-02-17T09:46:29.353Z,28.90
2023-02-17T09:49:12.667Z,28.52
2023-02-17T09:51:45.471Z,27.64
2023-02-17T09:54:37.675Z,25.00
2023-02-17T09:57:09.086Z,22.82
2023-02-17T09:59:55.903Z,23.07
2023-02-17T10:02:41.436Z,23.19
2023-02-17T10:05:14.376Z,22.51
2023-02-17T10:08:01.306Z,22.77
2023-02-17T10:10:35.806Z,22.89
2023-02-17T10:13:06.030Z,22.67
2023-02-17T10:15:41.288Z,22.04
2023-02-17T10:18:14.259Z,22.14
2023-02-17T10:20:58.310Z,23.44
2023-02-17T10:23:27.954Z,22.90
2023-02-17T10:25:54.847Z,22.47
2023-02-17T10:28:43.236Z,21.65
2023-02-17T10:31:19.109Z,22.07
2023-02-17T10:33:57.256Z,21.68
2023-02-17T10:36:45.033Z,21.65
2023-02-17T10:39:25.058Z,21.64
2023-02-17T10:41:55.094Z,21.55
2023-02-17T10:44:25.367Z,21.28
2023-02-17T10:46:54.109Z,20.76
2023-02-17T10:49:36.392Z,21.90
2023-02-17T10:52:13.310Z,21.35
2023-02-17T10:54:49.192Z,22.10
2023-02-17T10:57:17.955Z,21.55
2023-02-17T10:59:46.054Z,21.73
2023-02-17T11:02:43.854Z,21.38
2023-02-17T11:05:29.329Z,21.44
2023-02-17T11:08:01.980Z,22.02
2023-02-17T11:10:35.468Z,22.34
2023-02-17T11:13:03.852Z,22.22
2023-02-17T11:15:44.592Z,21.81
2023-02-17T11:18:20.800Z,21.57
2023-02-17T11:20:48.039Z,22.40
2023-02-17T11:23:14.780Z,21.71
2023-02-17T11:25:43.726Z,22.47
2023-02-17T11:28:24.024Z,21.33
2023-02-17T11:30:55.153Z,21.17
2023-02-17T11:33:37.573Z,20.76
2023-02-17T11:36:07.087Z,21.38
2023-02-17T11:38:43.802Z,20.89
2023-02-17T11:41:11.255Z,21.59
2023-02-17T11:43:39.838Z,20.85
2023-02-17T11:46:17.986Z,20.78
2023-02-17T11:49:07.477Z,20.64
2023-02-17T11:51:34.518Z,20.74
2023-02-17T11:54:19.940Z,20.77
2023-02-17T11:57:00.921Z,21.46
2023-02-17T11:59:48.794Z,21.63
2023-02-17T12:02:37.203Z,21.29
2023-02-17T12:05:19.303Z,21.41
2023-02-17T12:07:49.015Z,21.14
2023-02-17T12:11:01.793Z,20.86
2023-02-17T12:13:54.844Z,20.54
2023-02-17T12:16:35.633Z,20.17
2023-02-17T12:19:39.812Z,19.88
2023-02-17T12:22:20.388Z,19.90
2023-02-17T12:25:17.527Z,20.02
2023-02-17T12:27:52.621Z,20.28
2023-02-17T12:30:28.538Z,19.26
2023-02-17T12:33:20.653Z,18.80
2023-02-17T12:35:53.046Z,18.94
2023-02-17T12:38:43.707Z,19.26
2023-02-17T12:41:17.803Z,18.61
2023-02-17T12:43:49.552Z,17.82
2023-02-17T12:46:21.849Z,18.32
2023-02-17T12:49:02.855Z,18.15
2023-02-17T12:52:13.587Z,17.72
2023-02-17T12:54:50.334Z,17.39
2023-02-17T12:57:29.941Z,17.23
2023-02-17T12:59:58.685Z,17.15
2023-02-17T13:02:26.368Z,17.10
2023-02-17T13:05:02.175Z,16.82
2023-02-17T13:07:37.708Z,17.00
2023-02-17T13:10:07.990Z,16.80
2023-02-17T13:12:40.489Z,15.82
2023-02-17T13:15:31.128Z,15.06
2023-02-17T13:18:21.354Z,15.32
2023-02-17T13:20:54.447Z,15.62
2023-02-17T13:23:39.332Z,15.15
2023-02-17T13:26:29.239Z,14.96
2023-02-17T13:29:26.225Z,14.80
2023-02-17T13:32:04.759Z,14.57
2023-02-17T13:34:37.219Z,14.67
2023-02-17T13:37:37.408Z,14.72
2023-02-17T13:40:16.295Z,14.45
2023-02-17T13:42:48.446Z,15.30
2023-02-17T13:45:27.394Z,15.33
2023-02-17T13:47:57.502Z,15.08
2023-02-17T13:50:32.229Z,15.03
2023-02-17T13:53:00.791Z,14.94
2023-02-17T13:55:27.869Z,14.30
2023-02-17T13:57:57.672Z,14.23
2023-02-17T14:00:29.691Z,14.07
2023-02-17T14:03:00.602Z,14.41
2023-02-17T14:05:37.553Z,14.32
2023-02-17T14:08:07.739Z,14.64
2023-02-17T14:10:36.224Z,14.73
2023-02-17T14:13:03.229Z,14.39
2023-02-17T14:15:30.130Z,14.77
2023-02-17T14:17:56.952Z,15.70
2023-02-17T14:20:34.107Z,16.94
2023-02-17T14:23:12.771Z,17.43
2023-02-17T14:25:42.565Z,17.43
2023-02-17T14:28:24.645Z,18.22
2023-02-17T14:30:55.826Z,18.24
2023-02-17T14:33:25.036Z,18.59
2023-02-17T14:36:04.451Z,19.41
2023-02-17T14:38:37.510Z,19.42
2023-02-17T14:41:07.081Z,19.33
2023-02-17T14:43:34.019Z,19.08
2023-02-17T14:46:01.538Z,19.31
2023-02-17T14:48:28.655Z,18.86
2023-02-17T14:50:58.872Z,19.09
2023-02-17T14:53:31.390Z,19.63
2023-02-17T14:56:21.178Z,19.72
2023-02-17T14:58:48.270Z,19.82
2023-02-17T15:01:17.777Z,20.38
2023-02-17T15:03:45.284Z,21.99
2023-02-17T15:06:30.801Z,21.28
2023-02-17T15:09:01.310Z,21.18
2023-02-17T15:11:34.510Z,21.08
2023-02-17T15:14:03.001Z,21.02
2023-02-17T15:16:30.346Z,20.87
2023-02-17T15:18:57.875Z,21.47
2023-02-17T15:21:29.794Z,21.50
2023-02-17T15:23:58.508Z,21.80
2023-02-17T15:26:26.059Z,21.63
2023-02-17T15:28:53.823Z,21.53
2023-02-17T15:31:21.312Z,21.43
2023-02-17T15:33:59.829Z,21.57
2023-02-17T15:36:28.797Z,21.95
2023-02-17T15:38:55.579Z,21.64
2023-02-17T15:41:29.886Z,21.58
2023-02-17T15:43:58.653Z,21.90
2023-02-17T15:46:32.897Z,21.62
2023-02-17T15:48:59.946Z,22.10
2023-02-17T15:51:26.829Z,21.74
2023-02-17T15:53:53.634Z,21.69
2023-02-17T15:56:23.198Z,22.23
2023-02-17T15:58:51.141Z,22.38
2023-02-17T16:01:27.503Z,22.10
2023-02-17T16:03:55.646Z,22.24
2023-02-17T16:06:22.536Z,21.83
2023-02-17T16:08:49.493Z,21.13
2023-02-17T16:11:17.747Z,21.88
2023-02-17T16:13:46.490Z,21.91
2023-02-17T16:16:20.509Z,21.26
2023-02-17T16:18:48.024Z,21.09
2023-02-17T16:21:15.561Z,21.02
2023-02-17T16:23:43.053Z,20.91
2023-02-17T16:26:24.937Z,21.23
2023-02-17T16:28:52.299Z,21.36
2023-02-17T16:31:19.275Z,21.01
2023-02-17T16:33:46.247Z,21.11
2023-02-17T16:36:19.092Z,21.12
2023-02-17T16:38:49.092Z,21.22
2023-02-17T16:41:18.478Z,21.30
2023-02-17T16:43:45.612Z,21.55
2023-02-17T16:46:18.632Z,22.90
2023-02-17T16:48:45.546Z,22.93
2023-02-17T16:51:12.240Z,23.40
2023-02-17T16:53:40.402Z,23.55
2023-02-17T16:56:16.175Z,24.40
2023-02-17T16:58:43.286Z,24.84
2023-02-17T17:01:12.776Z,24.88
2023-02-17T17:03:40.702Z,24.79
2023-02-17T17:06:19.520Z,24.03
2023-02-17T17:08:47.149Z,24.58
2023-02-17T17:11:16.026Z,23.80
2023-02-17T17:13:44.527Z,24.53
2023-02-17T17:16:14.257Z,24.56
2023-02-17T17:18:41.133Z,23.83
2023-02-17T17:21:07.889Z,24.90
2023-02-17T17:23:34.857Z,24.39
2023-02-17T17:26:01.723Z,24.07
2023-02-17T17:28:28.595Z,24.22
2023-02-17T17:30:55.305Z,24.08
2023-02-17T17:33:22.256Z,24.41
2023-02-17T17:35:49.045Z,25.08
2023-02-17T17:38:16.980Z,25.22
2023-02-17T17:40:53.080Z,25.10
2023-02-17T17:43:22.988Z,25.00
2023-02-17T17:45:51.848Z,25.24
2023-02-17T17:48:18.947Z,24.63
2023-02-17T17:50:45.885Z,25.50
2023-02-17T17:53:12.737Z,25.26
2023-02-17T17:55:39.549Z,24.82
2023-02-17T17:58:06.410Z,24.69
2023-02-17T18:00:33.261Z,24.76
2023-02-17T18:03:00.257Z,24.57
2023-02-17T18:05:27.860Z,24.72
2023-02-17T18:07:56.446Z,24.16
2023-02-17T18:10:24.005Z,24.98
2023-02-17T18:12:51.478Z,25.00
2023-02-17T18:15:19.025Z,24.77
2023-02-17T18:17:49.294Z,25.34
2023-02-17T18:20:16.489Z,25.46
2023-02-17T18:22:43.767Z,25.33
2023-02-17T18:25:11.090Z,24.96
2023-02-17T18:27:45.004Z,24.99
2023-02-17T18:30:15.849Z,25.20
2023-02-17T18:32:44.355Z,25.18
2023-02-17T18:35:11.609Z,25.21
2023-02-17T18:37:40.930Z,25.10
2023-02-17T18:40:13.091Z,25.72
2023-02-17T18:42:42.253Z,25.21
2023-02-17T18:45:10.241Z,25.28
2023-02-17T18:47:37.792Z,24.83
2023-02-17T18:50:09.569Z,25.00
2023-02-17T18:52:41.231Z,25.52
2023-02-17T18:55:08.614Z,25.56
2023-02-17T18:57:36.263Z,25.34
2023-02-17T19:00:05.748Z,25.99
2023-02-17T19:02:35.180Z,25.31
2023-02-17T19:05:02.120Z,25.71
2023-02-17T19:07:28.902Z,25.61
2023-02-17T19:09:55.626Z,25.78
2023-02-17T19:12:22.546Z,26.36
2023-02-17T19:14:53.254Z,26.34
2023-02-17T19:17:20.273Z,26.78
2023-02-17T19:19:48.100Z,27.03
2023-02-17T19:22:14.865Z,27.16
2023-02-17T19:24:42.350Z,27.71
2023-02-17T19:27:10.166Z,27.71
2023-02-17T19:29:37.584Z,27.99
2023-02-17T19:32:04.805Z,27.73
2023-02-17T19:34:32.158Z,27.91
2023-02-17T19:36:58.820Z,27.60
2023-02-17T19:39:25.602Z,27.72
2023-02-17T19:41:52.569Z,28.44
2023-02-17T19:44:20.096Z,28.23
2023-02-17T19:46:47.133Z,27.89
2023-02-17T19:49:14.771Z,28.59
2023-02-17T19:51:41.530Z,28.60
2023-02-17T19:54:08.285Z,28.26
2023-02-17T19:56:36.449Z,28.85
2023-02-17T19:59:03.451Z,28.71
2023-02-17T20:01:33.535Z,28.56
2023-02-17T20:04:03.182Z,28.56
2023-02-17T20:06:38.517Z,29.33
2023-02-17T20:09:09.323Z,28.92
2023-02-17T20:11:36.823Z,29.38
2023-02-17T20:14:03.742Z,29.53
2023-02-17T20:16:31.131Z,29.59
2023-02-17T20:19:00.635Z,29.63
2023-02-17T20:21:29.380Z,29.37
2023-02-17T20:23:57.614Z,29.05
2023-02-17T20:26:28.014Z,29.75
2023-02-17T20:28:55.755Z,29.80
2023-02-17T20:31:23.504Z,30.14
2023-02-17T20:33:50.978Z,29.93
2023-02-17T20:36:18.726Z,29.83
2023-02-17T20:38:45.644Z,29.81
2023-02-17T20:41:16.171Z,30.08
2023-02-17T20:43:43.821Z,30.13
2023-02-17T20:46:18.624Z,30.56
2023-02-17T20:48:45.625Z,30.81
2023-02-17T20:51:12.343Z,31.30
2023-02-17T20:53:39.301Z,31.51
2023-02-17T20:56:14.576Z,31.36
2023-02-17T20:58:41.491Z,31.65
2023-02-17T21:01:08.528Z,31.41
2023-02-17T21:03:35.520Z,32.00
2023-02-17T21:06:04.456Z,32.23
2023-02-17T21:08:31.560Z,32.43
2023-02-17T21:10:58.342Z,32.03
2023-02-17T21:13:25.207Z,31.94
2023-02-17T21:15:52.122Z,31.89
2023-02-17T21:18:18.809Z,32.24
2023-02-17T21:20:47.237Z,32.12
2023-02-17T21:23:13.940Z,33.71
2023-02-17T21:25:40.664Z,33.16
2023-02-17T21:28:07.616Z,32.73
2023-02-17T21:30:34.428Z,32.84
2023-02-17T21:33:01.297Z,33.18
2023-02-17T21:35:28.112Z,32.89
2023-02-17T21:37:55.055Z,33.40
2023-02-17T21:40:21.696Z,33.07
2023-02-17T21:43:07.094Z,32.92
2023-02-17T21:45:38.427Z,32.91
2023-02-17T21:48:07.153Z,33.55
2023-02-17T21:50:33.938Z,33.45
2023-02-17T21:53:00.799Z,33.32
2023-02-17T21:55:27.711Z,32.74
2023-02-17T21:57:54.421Z,33.35
2023-02-17T22:00:21.290Z,33.19
2023-02-17T22:02:48.320Z,32.57
2023-02-17T22:05:15.193Z,32.78
2023-02-17T22:07:42.032Z,32.59
2023-02-17T22:10:09.108Z,32.65
2023-02-17T22:12:37.296Z,32.91
2023-02-17T22:15:05.783Z,33.43
2023-02-17T22:17:35.314Z,33.48
2023-02-17T22:20:03.374Z,33.19
2023-02-17T22:22:30.454Z,34.14
2023-02-17T22:24:58.898Z,34.65
2023-02-17T22:27:25.789Z,33.94
2023-02-17T22:29:52.661Z,34.67
2023-02-17T22:32:19.527Z,34.43
2023-02-17T22:34:46.323Z,33.81
2023-02-17T22:37:13.232Z,33.38
2023-02-17T22:39:39.949Z,33.70
2023-02-17T22:42:06.943Z,33.57
2023-02-17T22:44:33.765Z,34.02
2023-02-17T22:47:00.620Z,33.57
2023-02-17T22:49:28.129Z,34.25
2023-02-17T22:51:54.882Z,34.09
2023-02-17T22:54:21.613Z,34.81
2023-02-17T22:56:48.345Z,34.50
2023-02-17T22:59:15.064Z,35.49
2023-02-17T23:01:41.887Z,35.45
2023-02-17T23:04:08.874Z,35.25
2023-02-17T23:06:38.033Z,35.27
2023-02-17T23:09:07.100Z,35.02
2023-02-17T23:11:57.548Z,35.74
2023-02-17T23:14:39.853Z,35.27
2023-02-17T23:17:10.133Z,36.66
2023-02-17T23:19:37.986Z,39.38
2023-02-17T23:22:10.779Z,38.38
2023-02-17T23:24:38.075Z,37.46
2023-02-17T23:27:05.086Z,37.28
2023-02-17T23:29:32.706Z,36.91
2023-02-17T23:32:00.150Z,37.00
2023-02-17T23:34:28.538Z,37.10
2023-02-17T23:36:55.339Z,37.21
2023-02-17T23:39:22.232Z,37.43
2023-02-17T23:41:49.101Z,37.49
2023-02-17T23:44:16.390Z,37.43
2023-02-17T23:46:44.718Z,36.73
2023-02-17T23:49:18.123Z,36.90
2023-02-17T23:51:46.914Z,36.88
2023-02-17T23:54:14.189Z,37.68
2023-02-17T23:56:40.991Z,37.89
2023-02-17T23:59:07.645Z,37.63
